sensor_id;sensor_type;location;lat;lon;timestamp;temperature;humidity
51029;DHT22;37054;52.054;8.600;2022-09-17T00:00:32;17.30;65.10
51029;DHT22;37054;52.054;8.600;2022-09-17T00:02:57;17.40;65.20
51029;DHT22;37054;52.054;8.600;2022-09-17T00:05:23;17.40;65.20
51029;DHT22;37054;52.054;8.600;2022-09-17T00:07:52;17.40;65.00
51029;DHT22;37054;52.054;8.600;2022-09-17T00:10:18;17.50;64.90
51029;DHT22;37054;52.054;8.600;2022-09-17T00:12:44;17.50;64.90
51029;DHT22;37054;52.054;8.600;2022-09-17T00:15:09;17.50;64.90
51029;DHT22;37054;52.054;8.600;2022-09-17T00:17:35;17.50;64.90
51029;DHT22;37054;52.054;8.600;2022-09-17T00:20:00;17.50;64.90
51029;DHT22;37054;52.054;8.600;2022-09-17T00:22:26;17.50;65.00
51029;DHT22;37054;52.054;8.600;2022-09-17T00:24:52;17.60;65.00
51029;DHT22;37054;52.054;8.600;2022-09-17T00:27:17;17.60;64.90
51029;DHT22;37054;52.054;8.600;2022-09-17T00:29:43;17.60;64.90
51029;DHT22;37054;52.054;8.600;2022-09-17T00:32:08;17.70;64.90
51029;DHT22;37054;52.054;8.600;2022-09-17T00:34:34;17.70;64.80
51029;DHT22;37054;52.054;8.600;2022-09-17T00:37:00;17.70;64.70
51029;DHT22;37054;52.054;8.600;2022-09-17T00:39:25;17.60;64.60
51029;DHT22;37054;52.054;8.600;2022-09-17T00:41:51;17.60;64.60
51029;DHT22;37054;52.054;8.600;2022-09-17T00:47:00;17.50;64.60
51029;DHT22;37054;52.054;8.600;2022-09-17T00:49:27;17.50;64.60
51029;DHT22;37054;52.054;8.600;2022-09-17T00:52:00;17.40;64.60
51029;DHT22;37054;52.054;8.600;2022-09-17T00:54:25;17.40;64.70
51029;DHT22;37054;52.054;8.600;2022-09-17T00:56:51;17.40;64.60
51029;DHT22;37054;52.054;8.600;2022-09-17T00:59:17;17.40;64.60
51029;DHT22;37054;52.054;8.600;2022-09-17T01:01:44;17.30;64.50
51029;DHT22;37054;52.054;8.600;2022-09-17T01:04:16;17.30;64.30
51029;DHT22;37054;52.054;8.600;2022-09-17T01:07:03;17.30;64.20
51029;DHT22;37054;52.054;8.600;2022-09-17T01:12:12;17.20;64.40
51029;DHT22;37054;52.054;8.600;2022-09-17T01:14:56;17.20;64.50
51029;DHT22;37054;52.054;8.600;2022-09-17T01:18:12;17.20;64.70
51029;DHT22;37054;52.054;8.600;2022-09-17T01:20:17;17.20;64.70
51029;DHT22;37054;52.054;8.600;2022-09-17T01:25:19;17.20;64.70
51029;DHT22;37054;52.054;8.600;2022-09-17T01:30:30;17.20;64.80
51029;DHT22;37054;52.054;8.600;2022-09-17T01:33:01;17.20;64.80
51029;DHT22;37054;52.054;8.600;2022-09-17T01:35:33;17.10;64.70
51029;DHT22;37054;52.054;8.600;2022-09-17T01:38:03;17.10;64.60
51029;DHT22;37054;52.054;8.600;2022-09-17T01:40:42;17.10;64.50
51029;DHT22;37054;52.054;8.600;2022-09-17T01:43:28;17.00;64.40
51029;DHT22;37054;52.054;8.600;2022-09-17T01:48:54;16.90;64.40
51029;DHT22;37054;52.054;8.600;2022-09-17T01:51:24;16.80;64.40
51029;DHT22;37054;52.054;8.600;2022-09-17T01:54:02;16.80;64.20
51029;DHT22;37054;52.054;8.600;2022-09-17T01:56:30;16.80;64.10
51029;DHT22;37054;52.054;8.600;2022-09-17T01:59:03;16.80;64.20
51029;DHT22;37054;52.054;8.600;2022-09-17T02:01:29;16.80;64.40
51029;DHT22;37054;52.054;8.600;2022-09-17T02:06:25;16.80;64.60
51029;DHT22;37054;52.054;8.600;2022-09-17T02:08:53;16.80;64.70
51029;DHT22;37054;52.054;8.600;2022-09-17T02:11:20;16.90;64.60
51029;DHT22;37054;52.054;8.600;2022-09-17T02:13:46;16.90;64.60
51029;DHT22;37054;52.054;8.600;2022-09-17T02:16:30;16.90;64.40
51029;DHT22;37054;52.054;8.600;2022-09-17T02:24:11;16.70;63.90
51029;DHT22;37054;52.054;8.600;2022-09-17T02:26:40;16.60;63.90
51029;DHT22;37054;52.054;8.600;2022-09-17T02:29:08;16.60;63.90
51029;DHT22;37054;52.054;8.600;2022-09-17T02:31:36;16.50;63.90
51029;DHT22;37054;52.054;8.600;2022-09-17T02:34:02;16.50;63.80
51029;DHT22;37054;52.054;8.600;2022-09-17T02:36:28;16.50;63.90
51029;DHT22;37054;52.054;8.600;2022-09-17T02:38:59;16.40;63.70
51029;DHT22;37054;52.054;8.600;2022-09-17T02:41:30;16.30;63.70
51029;DHT22;37054;52.054;8.600;2022-09-17T02:44:05;16.30;63.60
51029;DHT22;37054;52.054;8.600;2022-09-17T02:54:30;16.00;63.70
51029;DHT22;37054;52.054;8.600;2022-09-17T02:57:06;16.00;63.60
51029;DHT22;37054;52.054;8.600;2022-09-17T03:02:18;16.00;63.70
51029;DHT22;37054;52.054;8.600;2022-09-17T03:04:46;15.90;63.90
51029;DHT22;37054;52.054;8.600;2022-09-17T03:07:12;15.80;63.90
51029;DHT22;37054;52.054;8.600;2022-09-17T03:09:38;15.80;63.80
51029;DHT22;37054;52.054;8.600;2022-09-17T03:12:04;15.80;63.70
51029;DHT22;37054;52.054;8.600;2022-09-17T03:14:30;15.70;63.70
51029;DHT22;37054;52.054;8.600;2022-09-17T03:16:55;15.70;63.80
51029;DHT22;37054;52.054;8.600;2022-09-17T03:19:21;15.80;64.00
51029;DHT22;37054;52.054;8.600;2022-09-17T03:21:47;15.80;64.10
51029;DHT22;37054;52.054;8.600;2022-09-17T03:24:12;15.80;64.10
51029;DHT22;37054;52.054;8.600;2022-09-17T03:26:38;15.80;64.00
51029;DHT22;37054;52.054;8.600;2022-09-17T03:29:04;15.70;63.80
51029;DHT22;37054;52.054;8.600;2022-09-17T03:31:29;15.70;63.70
51029;DHT22;37054;52.054;8.600;2022-09-17T03:33:55;15.60;63.50
51029;DHT22;37054;52.054;8.600;2022-09-17T03:36:20;15.50;63.20
51029;DHT22;37054;52.054;8.600;2022-09-17T03:38:45;15.50;63.10
51029;DHT22;37054;52.054;8.600;2022-09-17T03:41:11;15.40;63.00
51029;DHT22;37054;52.054;8.600;2022-09-17T03:43:36;15.30;62.90
51029;DHT22;37054;52.054;8.600;2022-09-17T03:46:04;15.20;62.80
51029;DHT22;37054;52.054;8.600;2022-09-17T03:48:29;15.20;62.90
51029;DHT22;37054;52.054;8.600;2022-09-17T03:50:56;15.10;62.90
51029;DHT22;37054;52.054;8.600;2022-09-17T03:53:22;15.10;63.00
51029;DHT22;37054;52.054;8.600;2022-09-17T03:55:47;15.00;63.00
51029;DHT22;37054;52.054;8.600;2022-09-17T03:58:13;15.00;62.80
51029;DHT22;37054;52.054;8.600;2022-09-17T04:00:38;14.90;62.80
51029;DHT22;37054;52.054;8.600;2022-09-17T04:03:04;14.90;63.00
51029;DHT22;37054;52.054;8.600;2022-09-17T04:05:30;14.80;63.10
51029;DHT22;37054;52.054;8.600;2022-09-17T04:07:55;14.80;63.20
51029;DHT22;37054;52.054;8.600;2022-09-17T04:10:21;14.80;63.50
51029;DHT22;37054;52.054;8.600;2022-09-17T04:12:47;14.80;63.70
51029;DHT22;37054;52.054;8.600;2022-09-17T04:15:13;14.80;63.60
51029;DHT22;37054;52.054;8.600;2022-09-17T04:17:38;14.80;63.70
51029;DHT22;37054;52.054;8.600;2022-09-17T04:20:04;14.80;63.60
51029;DHT22;37054;52.054;8.600;2022-09-17T04:22:30;14.70;63.40
51029;DHT22;37054;52.054;8.600;2022-09-17T04:24:56;14.70;63.20
51029;DHT22;37054;52.054;8.600;2022-09-17T04:27:21;14.70;63.20
51029;DHT22;37054;52.054;8.600;2022-09-17T04:29:47;14.60;63.30
51029;DHT22;37054;52.054;8.600;2022-09-17T04:32:12;14.60;63.40
51029;DHT22;37054;52.054;8.600;2022-09-17T04:34:38;14.60;63.30
51029;DHT22;37054;52.054;8.600;2022-09-17T04:37:03;14.60;63.30
51029;DHT22;37054;52.054;8.600;2022-09-17T04:39:29;14.50;63.40
51029;DHT22;37054;52.054;8.600;2022-09-17T04:41:54;14.60;63.70
51029;DHT22;37054;52.054;8.600;2022-09-17T04:44:19;14.50;63.80
51029;DHT22;37054;52.054;8.600;2022-09-17T04:46:45;14.60;63.80
51029;DHT22;37054;52.054;8.600;2022-09-17T04:49:10;14.60;63.60
51029;DHT22;37054;52.054;8.600;2022-09-17T04:51:37;14.50;63.40
51029;DHT22;37054;52.054;8.600;2022-09-17T04:54:03;14.50;63.40
51029;DHT22;37054;52.054;8.600;2022-09-17T04:56:28;14.40;63.40
51029;DHT22;37054;52.054;8.600;2022-09-17T04:58:54;14.40;63.20
51029;DHT22;37054;52.054;8.600;2022-09-17T05:01:19;14.40;63.30
51029;DHT22;37054;52.054;8.600;2022-09-17T05:03:45;14.40;63.40
51029;DHT22;37054;52.054;8.600;2022-09-17T05:06:11;14.30;63.30
51029;DHT22;37054;52.054;8.600;2022-09-17T05:08:36;14.30;63.30
51029;DHT22;37054;52.054;8.600;2022-09-17T05:11:01;14.30;63.20
51029;DHT22;37054;52.054;8.600;2022-09-17T05:13:27;14.30;63.40
51029;DHT22;37054;52.054;8.600;2022-09-17T05:15:53;14.30;63.30
51029;DHT22;37054;52.054;8.600;2022-09-17T05:18:21;14.20;63.30
51029;DHT22;37054;52.054;8.600;2022-09-17T05:20:47;14.30;63.40
51029;DHT22;37054;52.054;8.600;2022-09-17T05:23:12;14.20;63.40
51029;DHT22;37054;52.054;8.600;2022-09-17T05:25:38;14.20;63.50
51029;DHT22;37054;52.054;8.600;2022-09-17T05:28:03;14.20;63.60
51029;DHT22;37054;52.054;8.600;2022-09-17T05:30:29;14.20;63.60
51029;DHT22;37054;52.054;8.600;2022-09-17T05:32:58;14.20;63.70
51029;DHT22;37054;52.054;8.600;2022-09-17T05:35:24;14.20;63.80
51029;DHT22;37054;52.054;8.600;2022-09-17T05:37:49;14.20;63.80
51029;DHT22;37054;52.054;8.600;2022-09-17T05:40:15;14.30;63.90
51029;DHT22;37054;52.054;8.600;2022-09-17T05:42:40;14.30;64.00
51029;DHT22;37054;52.054;8.600;2022-09-17T05:45:06;14.30;64.10
51029;DHT22;37054;52.054;8.600;2022-09-17T05:47:32;14.30;64.10
51029;DHT22;37054;52.054;8.600;2022-09-17T05:49:59;14.40;64.20
51029;DHT22;37054;52.054;8.600;2022-09-17T05:52:25;14.40;64.50
51029;DHT22;37054;52.054;8.600;2022-09-17T05:54:52;14.60;65.10
51029;DHT22;37054;52.054;8.600;2022-09-17T05:57:17;14.80;66.00
51029;DHT22;37054;52.054;8.600;2022-09-17T05:59:44;15.10;66.60
51029;DHT22;37054;52.054;8.600;2022-09-17T06:02:12;15.40;67.10
51029;DHT22;37054;52.054;8.600;2022-09-17T06:04:38;15.70;67.10
51029;DHT22;37054;52.054;8.600;2022-09-17T06:07:04;16.00;67.20
51029;DHT22;37054;52.054;8.600;2022-09-17T06:09:33;16.30;66.80
51029;DHT22;37054;52.054;8.600;2022-09-17T06:11:58;16.50;66.20
51029;DHT22;37054;52.054;8.600;2022-09-17T06:14:24;16.60;66.00
51029;DHT22;37054;52.054;8.600;2022-09-17T06:16:49;16.80;66.30
51029;DHT22;37054;52.054;8.600;2022-09-17T06:19:15;17.10;67.30
51029;DHT22;37054;52.054;8.600;2022-09-17T06:21:40;17.50;68.20
51029;DHT22;37054;52.054;8.600;2022-09-17T06:24:06;18.00;69.30
51029;DHT22;37054;52.054;8.600;2022-09-17T06:26:31;18.60;69.90
51029;DHT22;37054;52.054;8.600;2022-09-17T06:28:57;19.10;69.40
51029;DHT22;37054;52.054;8.600;2022-09-17T06:31:23;19.30;67.40
51029;DHT22;37054;52.054;8.600;2022-09-17T06:33:48;19.50;66.40
51029;DHT22;37054;52.054;8.600;2022-09-17T06:36:15;19.60;67.10
51029;DHT22;37054;52.054;8.600;2022-09-17T06:38:41;19.90;66.90
51029;DHT22;37054;52.054;8.600;2022-09-17T06:41:07;20.10;67.40
51029;DHT22;37054;52.054;8.600;2022-09-17T06:43:32;20.30;67.60
51029;DHT22;37054;52.054;8.600;2022-09-17T06:46:02;20.60;67.30
51029;DHT22;37054;52.054;8.600;2022-09-17T06:48:28;20.80;66.40
51029;DHT22;37054;52.054;8.600;2022-09-17T06:50:54;21.00;67.10
51029;DHT22;37054;52.054;8.600;2022-09-17T06:53:20;21.40;68.20
51029;DHT22;37054;52.054;8.600;2022-09-17T06:55:46;21.80;68.10
51029;DHT22;37054;52.054;8.600;2022-09-17T06:58:11;22.10;67.70
51029;DHT22;37054;52.054;8.600;2022-09-17T07:00:37;22.30;65.90
51029;DHT22;37054;52.054;8.600;2022-09-17T07:03:03;22.30;65.50
51029;DHT22;37054;52.054;8.600;2022-09-17T07:05:29;22.30;65.80
51029;DHT22;37054;52.054;8.600;2022-09-17T07:07:54;22.40;64.70
51029;DHT22;37054;52.054;8.600;2022-09-17T07:10:20;22.20;63.10
51029;DHT22;37054;52.054;8.600;2022-09-17T07:12:47;22.00;63.50
51029;DHT22;37054;52.054;8.600;2022-09-17T07:15:13;22.00;64.70
51029;DHT22;37054;52.054;8.600;2022-09-17T07:17:40;22.20;65.50
51029;DHT22;37054;52.054;8.600;2022-09-17T07:20:07;22.20;64.80
51029;DHT22;37054;52.054;8.600;2022-09-17T07:22:32;22.20;65.00
51029;DHT22;37054;52.054;8.600;2022-09-17T07:24:58;22.40;66.30
51029;DHT22;37054;52.054;8.600;2022-09-17T07:27:25;22.70;66.70
51029;DHT22;37054;52.054;8.600;2022-09-17T07:29:51;23.20;67.50
51029;DHT22;37054;52.054;8.600;2022-09-17T07:32:16;23.60;67.70
51029;DHT22;37054;52.054;8.600;2022-09-17T07:34:42;24.10;67.20
51029;DHT22;37054;52.054;8.600;2022-09-17T07:37:07;24.60;66.60
51029;DHT22;37054;52.054;8.600;2022-09-17T07:39:33;25.00;66.60
51029;DHT22;37054;52.054;8.600;2022-09-17T07:41:58;25.40;65.90
51029;DHT22;37054;52.054;8.600;2022-09-17T07:44:24;25.90;66.30
51029;DHT22;37054;52.054;8.600;2022-09-17T07:46:49;26.40;66.40
51029;DHT22;37054;52.054;8.600;2022-09-17T07:49:15;26.90;65.50
51029;DHT22;37054;52.054;8.600;2022-09-17T07:51:40;27.20;64.40
51029;DHT22;37054;52.054;8.600;2022-09-17T07:54:06;27.50;64.30
51029;DHT22;37054;52.054;8.600;2022-09-17T07:56:31;27.70;63.20
51029;DHT22;37054;52.054;8.600;2022-09-17T07:58:57;27.80;63.50
51029;DHT22;37054;52.054;8.600;2022-09-17T08:01:22;28.10;63.60
51029;DHT22;37054;52.054;8.600;2022-09-17T08:03:51;28.30;63.60
51029;DHT22;37054;52.054;8.600;2022-09-17T08:06:19;28.60;63.80
51029;DHT22;37054;52.054;8.600;2022-09-17T08:08:45;28.90;64.10
51029;DHT22;37054;52.054;8.600;2022-09-17T08:11:13;29.30;63.80
51029;DHT22;37054;52.054;8.600;2022-09-17T08:13:39;29.60;63.90
51029;DHT22;37054;52.054;8.600;2022-09-17T08:16:09;29.90;63.30
51029;DHT22;37054;52.054;8.600;2022-09-17T08:18:36;30.30;63.00
51029;DHT22;37054;52.054;8.600;2022-09-17T08:21:02;30.60;61.90
51029;DHT22;37054;52.054;8.600;2022-09-17T08:23:28;30.80;59.10
51029;DHT22;37054;52.054;8.600;2022-09-17T08:25:54;31.00;58.60
51029;DHT22;37054;52.054;8.600;2022-09-17T08:28:21;31.10;58.70
51029;DHT22;37054;52.054;8.600;2022-09-17T08:30:47;31.30;57.80
51029;DHT22;37054;52.054;8.600;2022-09-17T08:33:15;31.40;56.60
51029;DHT22;37054;52.054;8.600;2022-09-17T08:35:53;31.40;54.90
51029;DHT22;37054;52.054;8.600;2022-09-17T08:38:21;31.50;53.60
51029;DHT22;37054;52.054;8.600;2022-09-17T08:46:10;31.90;51.10
51029;DHT22;37054;52.054;8.600;2022-09-17T08:48:38;32.00;51.60
51029;DHT22;37054;52.054;8.600;2022-09-17T08:51:07;32.10;51.80
51029;DHT22;37054;52.054;8.600;2022-09-17T08:56:05;32.40;50.60
51029;DHT22;37054;52.054;8.600;2022-09-17T09:01:26;32.70;49.90
51029;DHT22;37054;52.054;8.600;2022-09-17T09:03:58;32.80;50.00
51029;DHT22;37054;52.054;8.600;2022-09-17T09:06:37;32.80;47.10
51029;DHT22;37054;52.054;8.600;2022-09-17T09:09:09;33.00;46.60
51029;DHT22;37054;52.054;8.600;2022-09-17T09:11:35;32.90;47.00
51029;DHT22;37054;52.054;8.600;2022-09-17T09:14:06;33.00;46.10
51029;DHT22;37054;52.054;8.600;2022-09-17T09:16:35;33.00;46.20
51029;DHT22;37054;52.054;8.600;2022-09-17T09:19:11;33.10;45.50
51029;DHT22;37054;52.054;8.600;2022-09-17T09:21:44;32.80;38.30
51029;DHT22;37054;52.054;8.600;2022-09-17T09:26:45;32.60;42.10
51029;DHT22;37054;52.054;8.600;2022-09-17T09:29:16;32.50;39.90
51029;DHT22;37054;52.054;8.600;2022-09-17T09:34:11;32.40;37.80
51029;DHT22;37054;52.054;8.600;2022-09-17T09:36:41;32.20;37.30
51029;DHT22;37054;52.054;8.600;2022-09-17T09:39:11;32.10;37.70
51029;DHT22;37054;52.054;8.600;2022-09-17T09:44:36;32.30;37.10
51029;DHT22;37054;52.054;8.600;2022-09-17T09:47:17;32.40;37.20
51029;DHT22;37054;52.054;8.600;2022-09-17T09:52:20;32.80;35.50
51029;DHT22;37054;52.054;8.600;2022-09-17T10:02:41;32.70;31.40
51029;DHT22;37054;52.054;8.600;2022-09-17T10:05:07;32.30;30.00
51029;DHT22;37054;52.054;8.600;2022-09-17T10:07:41;32.40;31.50
51029;DHT22;37054;52.054;8.600;2022-09-17T10:10:08;32.60;30.30
51029;DHT22;37054;52.054;8.600;2022-09-17T10:12:34;32.70;30.90
51029;DHT22;37054;52.054;8.600;2022-09-17T10:15:01;32.80;29.80
51029;DHT22;37054;52.054;8.600;2022-09-17T10:17:42;33.00;28.80
51029;DHT22;37054;52.054;8.600;2022-09-17T10:20:16;33.30;29.00
51029;DHT22;37054;52.054;8.600;2022-09-17T10:22:43;33.30;28.40
51029;DHT22;37054;52.054;8.600;2022-09-17T10:25:29;33.50;28.00
51029;DHT22;37054;52.054;8.600;2022-09-17T10:27:56;33.90;27.60
51029;DHT22;37054;52.054;8.600;2022-09-17T10:30:22;34.20;26.50
51029;DHT22;37054;52.054;8.600;2022-09-17T10:35:33;33.80;26.90
51029;DHT22;37054;52.054;8.600;2022-09-17T10:37:59;33.50;23.80
51029;DHT22;37054;52.054;8.600;2022-09-17T10:40:25;32.70;24.00
51029;DHT22;37054;52.054;8.600;2022-09-17T10:45:39;32.10;25.60
51029;DHT22;37054;52.054;8.600;2022-09-17T10:48:40;32.20;26.40
51029;DHT22;37054;52.054;8.600;2022-09-17T10:50:58;32.10;25.90
51029;DHT22;37054;52.054;8.600;2022-09-17T10:53:25;32.00;25.20
51029;DHT22;37054;52.054;8.600;2022-09-17T10:56:01;31.80;25.10
51029;DHT22;37054;52.054;8.600;2022-09-17T11:01:27;30.80;24.90
51029;DHT22;37054;52.054;8.600;2022-09-17T11:11:17;30.90;25.80
51029;DHT22;37054;52.054;8.600;2022-09-17T11:24:10;30.70;26.60
51029;DHT22;37054;52.054;8.600;2022-09-17T11:26:53;30.90;26.80
51029;DHT22;37054;52.054;8.600;2022-09-17T11:32:13;31.50;26.00
51029;DHT22;37054;52.054;8.600;2022-09-17T11:34:45;31.30;25.40
51029;DHT22;37054;52.054;8.600;2022-09-17T11:37:31;31.30;25.70
51029;DHT22;37054;52.054;8.600;2022-09-17T11:42:29;31.90;25.00
51029;DHT22;37054;52.054;8.600;2022-09-17T11:44:57;32.10;25.00
51029;DHT22;37054;52.054;8.600;2022-09-17T11:47:34;31.90;24.60
51029;DHT22;37054;52.054;8.600;2022-09-17T11:50:13;32.10;24.70
51029;DHT22;37054;52.054;8.600;2022-09-17T11:52:44;32.00;24.50
51029;DHT22;37054;52.054;8.600;2022-09-17T11:55:22;32.10;23.80
51029;DHT22;37054;52.054;8.600;2022-09-17T11:57:50;32.20;23.60
51029;DHT22;37054;52.054;8.600;2022-09-17T12:00:18;32.10;23.00
51029;DHT22;37054;52.054;8.600;2022-09-17T12:02:47;31.80;23.30
51029;DHT22;37054;52.054;8.600;2022-09-17T12:07:47;31.30;24.00
51029;DHT22;37054;52.054;8.600;2022-09-17T12:15:39;30.40;24.30
51029;DHT22;37054;52.054;8.600;2022-09-17T12:20:35;30.30;24.00
51029;DHT22;37054;52.054;8.600;2022-09-17T12:23:02;30.00;23.90
51029;DHT22;37054;52.054;8.600;2022-09-17T12:25:32;29.50;23.70
51029;DHT22;37054;52.054;8.600;2022-09-17T12:28:04;29.10;24.40
51029;DHT22;37054;52.054;8.600;2022-09-17T12:30:37;28.80;24.90
51029;DHT22;37054;52.054;8.600;2022-09-17T12:33:15;28.50;24.80
51029;DHT22;37054;52.054;8.600;2022-09-17T12:40:45;27.80;25.20
51029;DHT22;37054;52.054;8.600;2022-09-17T12:43:36;27.80;25.30
51029;DHT22;37054;52.054;8.600;2022-09-17T12:51:14;28.00;24.60
51029;DHT22;37054;52.054;8.600;2022-09-17T12:53:57;27.80;25.00
51029;DHT22;37054;52.054;8.600;2022-09-17T12:56:36;28.00;24.70
51029;DHT22;37054;52.054;8.600;2022-09-17T12:59:09;28.30;24.60
51029;DHT22;37054;52.054;8.600;2022-09-17T13:01:43;28.70;24.20
51029;DHT22;37054;52.054;8.600;2022-09-17T13:04:20;28.90;24.20
51029;DHT22;37054;52.054;8.600;2022-09-17T13:07:00;29.10;23.90
51029;DHT22;37054;52.054;8.600;2022-09-17T13:09:37;29.30;23.90
51029;DHT22;37054;52.054;8.600;2022-09-17T13:12:18;29.50;23.90
51029;DHT22;37054;52.054;8.600;2022-09-17T13:17:35;29.80;23.90
51029;DHT22;37054;52.054;8.600;2022-09-17T13:22:46;29.30;24.50
51029;DHT22;37054;52.054;8.600;2022-09-17T13:25:13;28.70;24.90
51029;DHT22;37054;52.054;8.600;2022-09-17T13:27:39;28.10;25.00
51029;DHT22;37054;52.054;8.600;2022-09-17T13:30:06;27.60;25.40
51029;DHT22;37054;52.054;8.600;2022-09-17T13:40:19;26.10;27.20
51029;DHT22;37054;52.054;8.600;2022-09-17T13:42:46;25.80;27.10
51029;DHT22;37054;52.054;8.600;2022-09-17T13:45:14;25.40;26.80
51029;DHT22;37054;52.054;8.600;2022-09-17T13:47:53;25.00;26.80
51029;DHT22;37054;52.054;8.600;2022-09-17T13:53:15;24.30;27.10
51029;DHT22;37054;52.054;8.600;2022-09-17T13:55:42;24.10;27.70
51029;DHT22;37054;52.054;8.600;2022-09-17T13:58:20;23.80;28.20
51029;DHT22;37054;52.054;8.600;2022-09-17T14:00:53;23.60;28.80
51029;DHT22;37054;52.054;8.600;2022-09-17T14:13:54;22.50;31.60
51029;DHT22;37054;52.054;8.600;2022-09-17T14:21:55;22.00;33.20
51029;DHT22;37054;52.054;8.600;2022-09-17T14:24:22;21.80;33.80
51029;DHT22;37054;52.054;8.600;2022-09-17T14:31:48;21.60;34.60
51029;DHT22;37054;52.054;8.600;2022-09-17T14:34:17;21.50;34.90
51029;DHT22;37054;52.054;8.600;2022-09-17T14:36:43;21.50;35.10
51029;DHT22;37054;52.054;8.600;2022-09-17T14:39:18;21.50;35.20
51029;DHT22;37054;52.054;8.600;2022-09-17T14:41:44;21.70;35.30
51029;DHT22;37054;52.054;8.600;2022-09-17T14:49:16;22.00;35.40
51029;DHT22;37054;52.054;8.600;2022-09-17T14:51:43;22.20;35.50
51029;DHT22;37054;52.054;8.600;2022-09-17T14:57:00;22.00;35.70
51029;DHT22;37054;52.054;8.600;2022-09-17T14:59:46;21.90;35.80
51029;DHT22;37054;52.054;8.600;2022-09-17T15:04:44;21.60;36.30
51029;DHT22;37054;52.054;8.600;2022-09-17T15:07:11;21.60;36.40
51029;DHT22;37054;52.054;8.600;2022-09-17T15:09:37;21.50;36.60
51029;DHT22;37054;52.054;8.600;2022-09-17T15:12:03;21.50;36.90
51029;DHT22;37054;52.054;8.600;2022-09-17T15:14:30;21.40;37.40
51029;DHT22;37054;52.054;8.600;2022-09-17T15:16:59;21.40;37.50
51029;DHT22;37054;52.054;8.600;2022-09-17T15:19:30;21.30;37.80
51029;DHT22;37054;52.054;8.600;2022-09-17T15:22:07;21.30;38.00
51029;DHT22;37054;52.054;8.600;2022-09-17T15:27:28;21.30;38.40
51029;DHT22;37054;52.054;8.600;2022-09-17T15:30:00;21.30;38.60
51029;DHT22;37054;52.054;8.600;2022-09-17T15:32:26;21.30;38.70
51029;DHT22;37054;52.054;8.600;2022-09-17T15:37:41;21.30;38.70
51029;DHT22;37054;52.054;8.600;2022-09-17T15:40:23;21.30;38.60
51029;DHT22;37054;52.054;8.600;2022-09-17T15:42:50;21.30;38.80
51029;DHT22;37054;52.054;8.600;2022-09-17T15:45:20;21.20;39.10
51029;DHT22;37054;52.054;8.600;2022-09-17T15:47:53;21.30;39.30
51029;DHT22;37054;52.054;8.600;2022-09-17T15:50:22;21.20;39.50
51029;DHT22;37054;52.054;8.600;2022-09-17T15:52:49;21.20;39.50
51029;DHT22;37054;52.054;8.600;2022-09-17T15:57:54;21.20;39.20
51029;DHT22;37054;52.054;8.600;2022-09-17T16:00:19;21.10;38.70
51029;DHT22;37054;52.054;8.600;2022-09-17T16:02:45;21.10;38.30
51029;DHT22;37054;52.054;8.600;2022-09-17T16:07:36;21.00;37.80
51029;DHT22;37054;52.054;8.600;2022-09-17T16:10:02;20.90;37.70
51029;DHT22;37054;52.054;8.600;2022-09-17T16:12:28;20.90;37.60
51029;DHT22;37054;52.054;8.600;2022-09-17T16:14:56;20.90;37.70
51029;DHT22;37054;52.054;8.600;2022-09-17T16:17:29;20.80;37.60
51029;DHT22;37054;52.054;8.600;2022-09-17T16:20:12;20.80;37.50
51029;DHT22;37054;52.054;8.600;2022-09-17T16:22:39;20.70;37.60
51029;DHT22;37054;52.054;8.600;2022-09-17T16:25:05;20.70;37.50
51029;DHT22;37054;52.054;8.600;2022-09-17T16:27:32;20.60;37.50
51029;DHT22;37054;52.054;8.600;2022-09-17T16:30:00;20.50;37.60
51029;DHT22;37054;52.054;8.600;2022-09-17T16:32:27;20.50;37.80
51029;DHT22;37054;52.054;8.600;2022-09-17T16:34:52;20.50;37.80
51029;DHT22;37054;52.054;8.600;2022-09-17T16:37:18;20.60;38.00
51029;DHT22;37054;52.054;8.600;2022-09-17T16:39:44;20.60;38.30
51029;DHT22;37054;52.054;8.600;2022-09-17T16:42:09;20.60;39.00
51029;DHT22;37054;52.054;8.600;2022-09-17T16:44:35;20.50;40.10
51029;DHT22;37054;52.054;8.600;2022-09-17T16:47:00;20.30;40.30
51029;DHT22;37054;52.054;8.600;2022-09-17T16:49:26;20.10;40.40
51029;DHT22;37054;52.054;8.600;2022-09-17T16:51:51;19.90;40.60
51029;DHT22;37054;52.054;8.600;2022-09-17T16:54:17;19.80;40.80
51029;DHT22;37054;52.054;8.600;2022-09-17T16:56:42;19.70;41.00
51029;DHT22;37054;52.054;8.600;2022-09-17T16:59:08;19.70;41.10
51029;DHT22;37054;52.054;8.600;2022-09-17T17:01:33;19.60;41.10
51029;DHT22;37054;52.054;8.600;2022-09-17T17:03:59;19.50;41.20
51029;DHT22;37054;52.054;8.600;2022-09-17T17:06:25;19.40;41.20
51029;DHT22;37054;52.054;8.600;2022-09-17T17:08:50;19.30;41.10
51029;DHT22;37054;52.054;8.600;2022-09-17T17:11:16;19.20;40.80
51029;DHT22;37054;52.054;8.600;2022-09-17T17:13:41;19.10;40.50
51029;DHT22;37054;52.054;8.600;2022-09-17T17:16:07;19.10;40.40
51029;DHT22;37054;52.054;8.600;2022-09-17T17:18:33;19.00;40.20
51029;DHT22;37054;52.054;8.600;2022-09-17T17:21:06;18.90;40.00
51029;DHT22;37054;52.054;8.600;2022-09-17T17:23:32;18.80;40.00
51029;DHT22;37054;52.054;8.600;2022-09-17T17:25:58;18.80;39.90
51029;DHT22;37054;52.054;8.600;2022-09-17T17:28:24;18.80;39.90
51029;DHT22;37054;52.054;8.600;2022-09-17T17:30:49;18.70;39.90
51029;DHT22;37054;52.054;8.600;2022-09-17T17:33:15;18.70;40.00
51029;DHT22;37054;52.054;8.600;2022-09-17T17:35:40;18.50;40.10
51029;DHT22;37054;52.054;8.600;2022-09-17T17:38:06;18.50;40.40
51029;DHT22;37054;52.054;8.600;2022-09-17T17:40:31;18.30;40.70
51029;DHT22;37054;52.054;8.600;2022-09-17T17:42:57;18.30;41.00
51029;DHT22;37054;52.054;8.600;2022-09-17T17:45:22;18.20;41.40
51029;DHT22;37054;52.054;8.600;2022-09-17T17:47:48;18.00;41.50
51029;DHT22;37054;52.054;8.600;2022-09-17T17:50:13;18.00;41.70
51029;DHT22;37054;52.054;8.600;2022-09-17T17:52:40;17.90;42.10
51029;DHT22;37054;52.054;8.600;2022-09-17T17:55:07;17.80;42.40
51029;DHT22;37054;52.054;8.600;2022-09-17T17:57:33;17.80;42.80
51029;DHT22;37054;52.054;8.600;2022-09-17T17:59:58;17.80;43.10
51029;DHT22;37054;52.054;8.600;2022-09-17T18:02:24;17.70;43.20
51029;DHT22;37054;52.054;8.600;2022-09-17T18:04:49;17.70;43.30
51029;DHT22;37054;52.054;8.600;2022-09-17T18:07:15;17.70;43.40
51029;DHT22;37054;52.054;8.600;2022-09-17T18:09:41;17.70;43.40
51029;DHT22;37054;52.054;8.600;2022-09-17T18:12:06;17.80;43.70
51029;DHT22;37054;52.054;8.600;2022-09-17T18:14:32;17.80;43.90
51029;DHT22;37054;52.054;8.600;2022-09-17T18:16:57;17.80;43.90
51029;DHT22;37054;52.054;8.600;2022-09-17T18:19:23;17.80;43.80
51029;DHT22;37054;52.054;8.600;2022-09-17T18:21:48;17.80;43.90
51029;DHT22;37054;52.054;8.600;2022-09-17T18:24:14;17.70;44.00
51029;DHT22;37054;52.054;8.600;2022-09-17T18:26:39;17.70;43.90